• Join FlightAware (Why Join?)
  • Login
  • US Flag 
02:56PM EDT


 

Airport Tracker/Info


-or-


 

Live Flight TrackerFlight Track Log ✈ N891ES ✈ 12-Nov-2013 ✈ KCHA - KCMI

Flight Track Log - Related Links

Times and Time Zones

All times are in EST time to prevent confusion due to time zone crossing. See the N891ES flight status page for this flight to view local times or setup timezone preferences in your user account.

Time Position Orientation Groundspeed Altitude Reporting Facility
EST Latitude Longitude Course Direction KTS MPH feet Rate Location/Type
11:35PM 35.1200 -85.1989 342° North 163 188 5,500  Level Memphis Center
11:36PM 35.1603 -85.2236 333° Northwest 164 189 8,100 2,220 Climbing Memphis Center
11:37PM 35.1956 -85.2458 333° Northwest 148 170 10,000 900 Climbing Memphis Center
11:38PM 35.2444 -85.2739 335° Northwest 183 211 10,000  Level Memphis Center
11:39PM 35.2969 -85.3061 333° Northwest 204 235 10,000 600 Level Memphis Center
11:40PM 35.3478 -85.3353 335° Northwest 204 235 11,300 1,860 Climbing Memphis Center
11:41PM 35.3986 -85.3636 336° Northwest 175 201 13,800 2,160 Climbing Memphis Center
11:42PM 35.4403 -85.3872 335° Northwest 166 191 15,700 1,740 Climbing Memphis Center
11:43PM 35.4817 -85.4122 334° Northwest 165 190 17,400 1,380 Climbing Memphis Center
11:44PM 35.5250 -85.4386 334° Northwest 170 196 18,500 1,380 Climbing Memphis Center
11:45PM 35.5669 -85.4619 336° Northwest 168 193 20,300 1,620 Climbing Memphis Center
11:46PM 35.6047 -85.4853 333° Northwest 157 181 21,900 1,320 Climbing Memphis Center
11:47PM 35.6458 -85.5081 336° Northwest 158 182 23,000 1,080 Climbing Memphis Center
11:48PM 35.6889 -85.5344 334° Northwest 168 193 24,200 1,140 Climbing Memphis Center
11:49PM 35.7322 -85.5597 335° Northwest 171 197 25,400 840 Climbing Memphis Center
11:50PM 35.7742 -85.5853 334° Northwest 169 194 26,000 240 Climbing Memphis Center
11:51PM 35.8258 -85.6169 334° Northwest 193 222 26,000  Level Memphis Center
11:52PM 35.8822 -85.6492 335° Northwest 214 246 26,000  Level Memphis Center
11:53PM 35.9369 -85.6817 334° Northwest 218 251 26,000  Level Memphis Center
11:54PM 35.9908 -85.7128 335° Northwest 215 247 26,000  Level Memphis Center
11:55PM 36.0433 -85.7444 334° Northwest 211 243 26,000  Level Memphis Center
11:56PM 36.0944 -85.7747 334° Northwest 206 237 26,000  Level Memphis Center
11:57PM 36.1456 -85.8053 334° Northwest 204 235 26,000  Level Memphis Center
11:58PM 36.1994 -85.8375 334° Northwest 203 234 26,000  Level Memphis Center
11:59PM 36.2508 -85.8681 334° Northwest 203 234 26,000  Level Memphis Center
12:00AM 36.3008 -85.8981 334° Northwest 200 230 26,000  Level Memphis Center
12:01AM 36.3506 -85.9278 334° Northwest 198 228 26,000  Level Memphis Center
12:02AM 36.4003 -85.9589 333° Northwest 197 227 26,000  Level Memphis Center
12:03AM 36.4497 -85.9878 335° Northwest 196 226 26,000  Level Memphis Center
12:04AM 36.4983 -86.0181 333° Northwest 194 223 26,000  Level Memphis Center
12:05AM 36.5472 -86.0469 335° Northwest 194 223 26,000  Level Memphis Center
12:06AM 36.5956 -86.0758 334° Northwest 192 221 26,000  Level Memphis Center
12:07AM 36.6442 -86.1053 334° Northwest 192 221 26,000  Level Memphis Center
12:08AM 36.6919 -86.1344 334° Northwest 191 220 26,000  Level Memphis Center
12:09AM 36.7397 -86.1633 334° Northwest 190 219 26,000  Level Memphis Center
12:10AM 36.7867 -86.1928 333° Northwest 188 216 26,000  Level Memphis Center
12:11AM 36.8342 -86.2208 335° Northwest 188 216 26,000  Level Memphis Center
12:12AM 36.8814 -86.2506 333° Northwest 189 217 26,000  Level Memphis Center
12:13AM 36.9311 -86.2806 334° Northwest 194 223 26,000  Level Memphis Center
12:14AM 36.9797 -86.3094 335° Northwest 193 222 26,000  Level Memphis Center
12:15AM 37.0347 -86.3433 334° Northwest 189 217 26,000  Level Memphis Center
12:16AM 37.0828 -86.3739 333° Northwest 191 220 26,000  Level Memphis Center
12:17AM 37.1314 -86.4039 334° Northwest 192 221 26,000  Level Memphis Center
12:18AM 37.1800 -86.4322 335° Northwest 191 220 26,000  Level Memphis Center
12:20AM 37.2283 -86.4644 332° Northwest 194 223 26,000  Level Memphis Center
12:21AM 37.2775 -86.4925 336° Northwest 192 221 26,000  Level Memphis Center
12:22AM 37.3264 -86.5228 334° Northwest 194 223 26,000  Level Memphis Center
12:23AM 37.3753 -86.5531 334° Northwest 194 223 26,000  Level Memphis Center
12:24AM 37.4236 -86.5839 333° Northwest 194 223 26,000  Level Memphis Center
12:25AM 37.4728 -86.6139 334° Northwest 194 223 26,000  Level Memphis Center
12:26AM 37.5214 -86.6444 334° Northwest 194 223 26,000  Level Memphis Center
12:27AM 37.5706 -86.6739 335° Northwest 194 223 26,000  Level Memphis Center
12:28AM 37.6200 -86.7069 332° Northwest 197 227 26,000  Level Memphis Center
12:29AM 37.6683 -86.7369 334° Northwest 194 223 26,000  Level Memphis Center
12:30AM 37.7178 -86.7686 333° Northwest 195 224 26,000  Level Memphis Center
12:31AM 37.7669 -86.7992 334° Northwest 196 226 26,000  Level Memphis Center
12:32AM 37.8256 -86.8344 335° Northwest 195 224 26,000  Level Indianapolis Center
12:33AM 37.8739 -86.8650 333° Northwest 194 223 26,000  Level Indianapolis Center
12:34AM 37.9233 -86.8967 333° Northwest 196 226 26,000  Level Indianapolis Center
12:35AM 37.9722 -86.9281 333° Northwest 197 227 26,000  Level Indianapolis Center
12:36AM 38.0214 -86.9589 334° Northwest 196 226 26,000  Level Indianapolis Center
12:37AM 38.0706 -86.9906 333° Northwest 196 226 26,000  Level Indianapolis Center
12:38AM 38.1192 -87.0219 333° Northwest 195 224 26,000  Level Indianapolis Center
12:39AM 38.1689 -87.0533 334° Northwest 197 227 26,000  Level Indianapolis Center
12:40AM 38.2175 -87.0850 333° Northwest 194 223 26,000  Level Indianapolis Center
12:41AM 38.2667 -87.1144 335° Northwest 197 227 26,000  Level Indianapolis Center
12:42AM 38.3169 -87.1442 335° Northwest 197 227 26,000  Level Indianapolis Center
12:43AM 38.3697 -87.1817 331° Northwest 199 229 26,000  Level Indianapolis Center
12:44AM 38.4186 -87.2131 333° Northwest 197 227 26,000  Level Indianapolis Center
12:45AM 38.4672 -87.2439 334° Northwest 194 223 26,000  Level Indianapolis Center
12:46AM 38.5169 -87.2758 333° Northwest 197 227 26,000  Level Indianapolis Center
12:47AM 38.5661 -87.3072 333° Northwest 196 226 26,000  Level Indianapolis Center
12:48AM 38.6158 -87.3397 333° Northwest 199 229 26,000  Level Indianapolis Center
12:49AM 38.6653 -87.3719 333° Northwest 198 228 26,000  Level Indianapolis Center
12:50AM 38.7150 -87.4036 334° Northwest 199 229 26,000 -300 Level Indianapolis Center
12:51AM 38.7656 -87.4364 333° Northwest 201 231 25,500 -720 Descending Indianapolis Center
12:52AM 38.8197 -87.4714 333° Northwest 213 245 24,600 -960 Descending Indianapolis Center
12:53AM 38.8744 -87.5067 333° Northwest 218 251 23,600 -1,020 Descending Indianapolis Center
12:54AM 38.9294 -87.5419 333° Northwest 219 252 22,600 -1,200 Descending Indianapolis Center
12:55AM 38.9867 -87.5783 334° Northwest 225 259 21,300 -1,320 Descending Indianapolis Center
12:56AM 39.0442 -87.6161 333° Northwest 229 264 20,000 -1,260 Descending Indianapolis Center
12:57AM 39.1019 -87.6533 333° Northwest 231 266 18,800 -900 Descending Indianapolis Center
12:58AM 39.1589 -87.6908 333° Northwest 230 265 18,200 -960 Descending Indianapolis Center
12:59AM 39.2167 -87.7289 333° Northwest 231 266 16,900 -1,260 Descending Indianapolis Center
01:00AM 39.2744 -87.7669 333° Northwest 231 266 15,700 -1,260 Descending Indianapolis Center
01:01AM 39.3333 -87.8050 333° Northwest 233 268 14,400 -1,320 Descending Indianapolis Center
01:02AM 39.3922 -87.8436 333° Northwest 235 270 13,100 -1,260 Descending Indianapolis Center
01:03AM 39.4503 -87.8811 333° Northwest 234 269 11,900 -1,260 Descending Indianapolis Center
01:04AM 39.5083 -87.9206 332° Northwest 233 268 10,600 -1,320 Descending Indianapolis Center
01:05AM 39.5683 -87.9603 333° Northwest 237 273 9,300 -1,320 Descending Indianapolis Center
01:06AM 39.6300 -88.0019 333° Northwest 244 281 8,000 -1,260 Descending Indianapolis Center
01:07AM 39.6911 -88.0411 334° Northwest 244 281 6,800 -1,260 Descending Indianapolis Center
01:08AM 39.7511 -88.0811 333° Northwest 243 280 5,500 -1,320 Descending Indianapolis Center
01:10AM 39.8125 -88.1325 327° Northwest  Level FlightAware Approximate
01:17AM 40.0333 -88.2667 333° Northwest  Level FlightAware Approximate
01:18AM 40.0388 -88.2778 333° Northwest  Level Estimated
01:19AM 40.0388 -88.2778 333° Northwest  Level Estimated
01:20AM 40.0388 -88.2778 333° Northwest  Level Estimated
01:21AM 40.0388 -88.2778 333° Northwest  Level Estimated
01:22AM 40.0388 -88.2778 333° Northwest  Level Estimated